Time;durP1;ratioP1;P1;durP2;ratioP2;P2;SDS_P1;SDS_P2;PMS_P1;PMS_P2;Temp;Humidity;BMP_temperature;BMP_pressure;BME280_temperature;BME280_humidity;BME280_pressure;Samples;Min_cycle;Max_cycle;Signal;HPM_P1;HPM_P2
2021/11/29 00:00:18;;;;;;;24.25;14.35;;;2.10;83.80;;;;;;4956800;29;20441;-77
2021/11/29 00:02:48;;;;;;;25.35;13.80;;;2.20;83.40;;;;;;4957143;29;20390;-77
2021/11/29 00:05:15;;;;;;;22.65;12.82;;;2.30;80.50;;;;;;4954847;29;20405;-77
2021/11/29 00:07:41;;;;;;;24.15;13.68;;;2.30;79.00;;;;;;4956671;29;20401;-76
2021/11/29 00:10:07;;;;;;;22.50;13.43;;;2.20;78.10;;;;;;4956906;29;20402;-76
2021/11/29 00:12:33;;;;;;;20.95;12.68;;;2.20;78.60;;;;;;4956443;28;20405;-76
2021/11/29 00:14:59;;;;;;;25.90;13.75;;;2.20;78.80;;;;;;4957406;28;20437;-77
2021/11/29 00:17:24;;;;;;;17.95;12.77;;;2.10;79.70;;;;;;4955557;29;20934;-78
2021/11/29 00:19:50;;;;;;;17.17;11.87;;;2.10;80.20;;;;;;4955834;28;20819;-77
2021/11/29 00:22:16;;;;;;;24.30;12.43;;;2.10;79.00;;;;;;4957469;29;20445;-75
2021/11/29 00:24:42;;;;;;;16.90;12.10;;;2.10;79.60;;;;;;4987352;28;20433;-76
2021/11/29 00:27:07;;;;;;;21.13;13.10;;;2.00;79.00;;;;;;4956954;28;20393;-77
2021/11/29 00:29:33;;;;;;;23.33;13.48;;;2.00;79.00;;;;;;4954273;28;20919;-76
2021/11/29 00:31:59;;;;;;;19.08;13.10;;;2.00;79.70;;;;;;4956416;28;20398;-76
2021/11/29 00:34:24;;;;;;;22.77;12.47;;;2.00;78.80;;;;;;4956234;29;20498;-76
2021/11/29 00:36:50;;;;;;;22.50;12.20;;;2.10;78.00;;;;;;4956036;28;20437;-77
2021/11/29 00:39:17;;;;;;;16.80;11.77;;;2.10;76.90;;;;;;4955368;29;20906;-77
2021/11/29 00:41:43;;;;;;;21.23;10.98;;;2.10;76.00;;;;;;4956800;29;20408;-76
2021/11/29 00:44:09;;;;;;;15.52;10.65;;;2.20;75.20;;;;;;4957633;28;20460;-76
2021/11/29 00:46:34;;;;;;;20.50;11.33;;;2.10;73.50;;;;;;4957247;28;20480;-76
2021/11/29 00:49:00;;;;;;;22.10;11.95;;;2.10;73.30;;;;;;4956054;28;20410;-77
2021/11/29 00:51:26;;;;;;;22.55;11.60;;;2.00;73.50;;;;;;4955862;29;20763;-76
2021/11/29 00:53:51;;;;;;;22.45;12.00;;;2.00;73.40;;;;;;4947475;28;20741;-77
2021/11/29 00:56:18;;;;;;;17.63;12.00;;;2.00;73.50;;;;;;4956394;28;20825;-76
2021/11/29 00:58:44;;;;;;;17.50;11.23;;;1.90;73.70;;;;;;4955216;29;20457;-77
2021/11/29 01:01:10;;;;;;;17.92;11.60;;;1.90;74.30;;;;;;4956270;28;20390;-75
2021/11/29 01:03:38;;;;;;;18.02;12.63;;;1.80;74.80;;;;;;4955597;29;20402;-77
2021/11/29 01:06:07;;;;;;;17.77;10.75;;;1.80;74.20;;;;;;4954610;29;20427;-77
2021/11/29 01:08:33;;;;;;;20.05;11.95;;;1.50;77.80;;;;;;4955124;28;20414;-76
2021/11/29 01:11:00;;;;;;;21.95;12.07;;;1.30;80.60;;;;;;4954774;28;20404;-77
2021/11/29 01:13:26;;;;;;;22.40;11.48;;;1.20;83.80;;;;;;4956169;28;20441;-76
2021/11/29 01:15:52;;;;;;;19.83;11.15;;;1.30;85.30;;;;;;4956151;29;20907;-79
2021/11/29 01:18:18;;;;;;;22.38;12.07;;;1.30;86.70;;;;;;4953912;29;20504;-76
2021/11/29 01:20:45;;;;;;;18.77;9.70;;;1.60;82.50;;;;;;4955367;28;20405;-77
2021/11/29 01:23:12;;;;;;;15.05;10.50;;;1.90;71.40;;;;;;4956015;28;20433;-78
2021/11/29 01:25:38;;;;;;;23.92;10.48;;;1.90;70.10;;;;;;4957909;29;20429;-78
2021/11/29 01:28:04;;;;;;;16.65;9.98;;;1.90;68.80;;;;;;4958534;28;20656;-76
2021/11/29 01:30:30;;;;;;;18.73;10.38;;;1.80;69.10;;;;;;4955436;28;20397;-77
2021/11/29 01:32:56;;;;;;;20.33;10.90;;;1.80;69.20;;;;;;4956573;29;20405;-77
2021/11/29 01:35:22;;;;;;;15.75;9.93;;;1.80;70.00;;;;;;4945328;29;20406;-76
2021/11/29 01:37:47;;;;;;;23.70;10.23;;;1.80;70.40;;;;;;4961614;29;20397;-78
2021/11/29 01:40:13;;;;;;;17.95;10.45;;;1.70;70.90;;;;;;4965588;28;20402;-77
2021/11/29 01:42:53;;;;;;;17.38;10.20;;;1.50;73.50;;;;;;4963935;29;20914;-76
2021/11/29 01:45:19;;;;;;;18.15;10.80;;;1.60;73.50;;;;;;4961873;29;20394;-76
2021/11/29 01:47:45;;;;;;;16.83;9.52;;;1.70;71.50;;;;;;4959031;28;20402;-76
2021/11/29 01:50:10;;;;;;;18.93;9.87;;;1.70;70.10;;;;;;4991240;23;20822;-78
2021/11/29 01:52:36;;;;;;;18.50;9.87;;;1.80;69.50;;;;;;5012852;28;20392;-77
2021/11/29 01:55:02;;;;;;;19.77;9.77;;;1.70;69.70;;;;;;5014433;28;20400;-75
2021/11/29 01:57:28;;;;;;;17.23;9.70;;;1.70;70.50;;;;;;5012395;28;20384;-75
2021/11/29 01:59:53;;;;;;;18.67;10.38;;;1.70;69.80;;;;;;5015303;28;20463;-75
2021/11/29 02:02:19;;;;;;;17.27;9.70;;;1.70;68.90;;;;;;5013969;28;20405;-76
2021/11/29 02:04:46;;;;;;;16.80;8.77;;;1.70;69.50;;;;;;5018845;28;20789;-75
2021/11/29 02:07:12;;;;;;;18.20;10.60;;;1.70;69.80;;;;;;5019341;28;20389;-76
2021/11/29 02:09:37;;;;;;;18.40;10.47;;;1.50;70.80;;;;;;5015466;28;20447;-77
2021/11/29 02:12:03;;;;;;;25.60;10.70;;;1.30;74.90;;;;;;5015667;28;20420;-76
2021/11/29 02:14:29;;;;;;;21.60;10.30;;;1.20;77.60;;;;;;5014224;28;20992;-76
2021/11/29 02:16:54;;;;;;;19.27;10.23;;;1.10;80.10;;;;;;5011851;28;20935;-75
2021/11/29 02:19:21;;;;;;;20.70;10.38;;;1.20;82.20;;;;;;5014527;28;20516;-75
2021/11/29 02:21:46;;;;;;;15.73;10.65;;;1.40;77.90;;;;;;5015022;28;20384;-75
2021/11/29 02:24:12;;;;;;;25.45;10.90;;;1.40;78.10;;;;;;5011837;28;20396;-75
2021/11/29 02:26:38;;;;;;;23.37;9.53;;;1.60;73.20;;;;;;5011992;28;20413;-77
2021/11/29 02:29:09;;;;;;;25.58;11.27;;;1.60;71.90;;;;;;5011697;28;20400;-76
2021/11/29 02:31:38;;;;;;;17.98;10.30;;;1.60;72.00;;;;;;5011136;28;20921;-76
2021/11/29 02:34:14;;;;;;;17.48;9.32;;;1.60;71.90;;;;;;5010959;28;20858;-76
2021/11/29 02:36:40;;;;;;;20.70;9.70;;;1.60;71.20;;;;;;5010152;28;20399;-76
2021/11/29 02:39:07;;;;;;;22.75;10.80;;;1.60;71.40;;;;;;5011036;28;20425;-76
2021/11/29 02:41:33;;;;;;;17.70;10.60;;;1.50;73.00;;;;;;5011316;28;20389;-76
2021/11/29 02:43:59;;;;;;;16.15;9.57;;;1.20;76.50;;;;;;5011080;28;20407;-76
2021/11/29 02:46:25;;;;;;;21.58;10.05;;;1.10;80.50;;;;;;5010857;28;20396;-76
2021/11/29 02:48:52;;;;;;;17.30;10.40;;;1.00;81.40;;;;;;5010928;28;20432;-74
2021/11/29 02:51:30;;;;;;;17.52;11.30;;;0.90;82.80;;;;;;5010194;28;20413;-77
2021/11/29 02:54:12;;;;;;;18.73;10.38;;;0.70;84.50;;;;;;4991334;28;20469;-74
2021/11/29 02:56:41;;;;;;;16.13;9.73;;;1.10;87.90;;;;;;4991421;28;20460;-75
2021/11/29 02:59:09;;;;;;;20.83;10.63;;;1.00;84.40;;;;;;4990182;28;20410;-75
2021/11/29 03:01:37;;;;;;;18.95;10.45;;;1.10;86.10;;;;;;5005603;28;20542;-75
2021/11/29 03:04:03;;;;;;;22.23;11.10;;;1.20;84.60;;;;;;5011533;28;20384;-74
2021/11/29 03:06:29;;;;;;;21.63;10.70;;;1.10;83.50;;;;;;5011122;28;20407;-75
2021/11/29 03:08:54;;;;;;;16.10;10.10;;;1.40;80.80;;;;;;5011965;28;20970;-75
2021/11/29 03:11:20;;;;;;;16.85;9.10;;;1.40;78.80;;;;;;5011230;28;20380;-75
2021/11/29 03:13:48;;;;;;;20.73;12.27;;;1.30;78.50;;;;;;5011581;28;20789;-76
2021/11/29 03:16:14;;;;;;;17.33;9.85;;;1.20;79.00;;;;;;5011630;28;20396;-75
2021/11/29 03:18:43;;;;;;;21.37;10.80;;;1.30;80.10;;;;;;5011497;28;20459;-74
2021/11/29 03:21:10;;;;;;;15.77;10.02;;;1.00;79.00;;;;;;4991544;28;20383;-74
2021/11/29 03:23:37;;;;;;;17.23;9.40;;;0.80;81.80;;;;;;4991549;28;20697;-75
2021/11/29 03:26:08;;;;;;;18.33;10.10;;;0.70;87.20;;;;;;4991656;28;20394;-74
2021/11/29 03:28:38;;;;;;;14.25;9.48;;;0.60;86.70;;;;;;4994668;28;20443;-75
2021/11/29 03:31:06;;;;;;;23.10;9.30;;;0.70;87.80;;;;;;5010812;28;20431;-77
2021/11/29 03:33:32;;;;;;;19.73;9.55;;;0.50;90.00;;;;;;5011387;28;20444;-75
2021/11/29 03:35:58;;;;;;;17.55;9.27;;;0.50;90.70;;;;;;5012652;28;20395;-74
2021/11/29 03:38:24;;;;;;;15.95;9.18;;;0.50;92.40;;;;;;5010534;28;20512;-74
2021/11/29 03:40:49;;;;;;;14.57;9.40;;;0.40;92.80;;;;;;5009848;28;20465;-76
2021/11/29 03:43:15;;;;;;;20.50;10.00;;;0.50;93.70;;;;;;5003868;28;20486;-76
2021/11/29 03:45:40;;;;;;;15.40;7.90;;;0.40;92.50;;;;;;5009837;28;20511;-74
2021/11/29 03:48:06;;;;;;;13.57;8.43;;;0.70;94.80;;;;;;5011301;28;20865;-75
2021/11/29 03:50:32;;;;;;;14.30;8.40;;;0.70;92.40;;;;;;5010903;28;20397;-75
2021/11/29 03:52:57;;;;;;;15.60;8.80;;;0.70;92.10;;;;;;5012569;28;20860;-76
2021/11/29 03:55:23;;;;;;;12.70;8.03;;;0.80;92.90;;;;;;5011287;28;20925;-74
2021/11/29 03:57:49;;;;;;;13.80;7.28;;;0.90;90.10;;;;;;5010923;28;20400;-75
2021/11/29 04:00:15;;;;;;;12.47;7.30;;;1.00;88.90;;;;;;5006258;28;20579;-75
2021/11/29 04:02:41;;;;;;;12.35;7.60;;;0.90;87.40;;;;;;5008715;28;20952;-75
2021/11/29 04:05:08;;;;;;;20.40;9.70;;;0.70;89.10;;;;;;5011603;28;20427;-76
2021/11/29 04:07:33;;;;;;;16.27;7.45;;;0.60;90.70;;;;;;5014269;28;20520;-75
2021/11/29 04:09:59;;;;;;;14.83;8.50;;;0.70;93.00;;;;;;5015698;28;20929;-76
2021/11/29 04:12:24;;;;;;;14.80;7.97;;;0.90;94.30;;;;;;5009140;28;20402;-75
2021/11/29 04:14:50;;;;;;;15.60;7.90;;;0.90;94.70;;;;;;5015755;28;20396;-75
2021/11/29 04:17:15;;;;;;;12.90;8.20;;;1.00;94.40;;;;;;5017107;28;20964;-74
2021/11/29 04:19:44;;;;;;;15.90;9.83;;;1.10;96.40;;;;;;5019481;28;20419;-75
2021/11/29 04:22:09;;;;;;;20.05;9.75;;;1.10;97.30;;;;;;5023789;28;20863;-75
2021/11/29 04:24:38;;;;;;;12.30;7.50;;;1.20;97.40;;;;;;5025315;28;20400;-75
2021/11/29 04:27:06;;;;;;;10.35;6.30;;;1.30;96.70;;;;;;5019581;28;20476;-74
2021/11/29 04:29:34;;;;;;;10.48;5.57;;;1.50;94.50;;;;;;5021707;28;20413;-74
2021/11/29 04:31:59;;;;;;;13.47;5.80;;;1.80;91.30;;;;;;5020756;28;20742;-74
2021/11/29 04:34:25;;;;;;;9.32;5.35;;;1.90;84.80;;;;;;5020987;28;20405;-74
2021/11/29 04:36:50;;;;;;;9.88;5.40;;;2.00;81.90;;;;;;5014786;28;20898;-75
2021/11/29 04:39:17;;;;;;;6.70;5.07;;;1.90;81.00;;;;;;5015344;28;20793;-75
2021/11/29 04:41:44;;;;;;;5.95;5.20;;;2.00;80.00;;;;;;5016788;28;20425;-75
2021/11/29 04:44:10;;;;;;;12.05;5.57;;;1.90;81.10;;;;;;5016344;28;20400;-75
2021/11/29 04:46:36;;;;;;;10.02;5.60;;;1.90;81.90;;;;;;5015501;28;20397;-74
2021/11/29 04:49:02;;;;;;;11.15;5.85;;;1.90;81.90;;;;;;5013092;28;20403;-75
2021/11/29 04:51:28;;;;;;;10.55;5.60;;;1.80;83.50;;;;;;5013123;28;20405;-75
2021/11/29 04:53:54;;;;;;;9.57;5.33;;;1.90;84.80;;;;;;5013440;28;20405;-75
2021/11/29 04:56:19;;;;;;;11.73;5.00;;;2.20;81.10;;;;;;5012974;28;20400;-75
2021/11/29 04:58:45;;;;;;;7.18;5.00;;;2.30;77.00;;;;;;5015457;28;20512;-75
2021/11/29 05:01:11;;;;;;;7.80;5.00;;;2.20;77.70;;;;;;5013135;28;20410;-76
2021/11/29 05:03:37;;;;;;;5.72;4.82;;;2.20;78.20;;;;;;5013026;28;20512;-75
2021/11/29 05:06:03;;;;;;;7.97;5.05;;;2.20;77.20;;;;;;5013288;28;20400;-76
2021/11/29 05:08:30;;;;;;;5.80;4.70;;;2.20;77.00;;;;;;5013481;28;20462;-75
2021/11/29 05:10:55;;;;;;;6.90;4.73;;;2.20;76.00;;;;;;4998473;28;20762;-75
2021/11/29 05:13:21;;;;;;;5.38;4.65;;;2.10;77.50;;;;;;5021719;28;20389;-74
2021/11/29 05:15:47;;;;;;;7.68;4.93;;;2.00;78.00;;;;;;5024696;28;20423;-75
2021/11/29 05:18:13;;;;;;;8.00;5.20;;;1.90;79.80;;;;;;5024808;28;20424;-75
2021/11/29 05:20:38;;;;;;;9.45;5.00;;;1.80;82.20;;;;;;5025101;28;20404;-74
2021/11/29 05:23:04;;;;;;;7.33;4.90;;;1.90;82.40;;;;;;5024868;28;20408;-75
2021/11/29 05:25:30;;;;;;;10.10;5.30;;;1.90;80.80;;;;;;5024416;28;20469;-74
2021/11/29 05:27:56;;;;;;;8.30;4.80;;;2.00;80.30;;;;;;5023917;28;20381;-75
2021/11/29 05:30:21;;;;;;;5.03;4.53;;;2.00;80.90;;;;;;5024615;28;20392;-75
2021/11/29 05:32:48;;;;;;;6.25;4.45;;;2.00;80.80;;;;;;5024464;28;20392;-75
2021/11/29 05:35:14;;;;;;;7.25;4.80;;;2.10;78.90;;;;;;5027024;28;20400;-75
2021/11/29 05:37:39;;;;;;;7.60;4.10;;;2.20;80.50;;;;;;5023262;28;20481;-75
2021/11/29 05:40:05;;;;;;;8.17;4.37;;;2.30;77.90;;;;;;5023321;28;20400;-75
2021/11/29 05:42:31;;;;;;;4.57;4.03;;;2.30;78.70;;;;;;5021193;28;20852;-75
2021/11/29 05:44:57;;;;;;;6.70;4.50;;;2.30;79.70;;;;;;5024126;28;20730;-71
2021/11/29 05:47:22;;;;;;;5.97;4.15;;;2.50;77.30;;;;;;5020505;28;20389;-75
2021/11/29 05:49:48;;;;;;;4.40;3.95;;;2.50;76.20;;;;;;5013186;28;20405;-75
2021/11/29 05:52:14;;;;;;;4.33;3.93;;;2.60;75.30;;;;;;5010723;28;20806;-73
2021/11/29 05:54:40;;;;;;;5.03;4.00;;;2.60;73.70;;;;;;5012951;28;20479;-74
2021/11/29 05:57:06;;;;;;;4.03;3.63;;;2.70;72.60;;;;;;5012611;28;20464;-74
2021/11/29 05:59:32;;;;;;;4.28;3.60;;;2.70;72.50;;;;;;5007558;28;20417;-76
2021/11/29 06:01:57;;;;;;;3.33;3.03;;;2.90;68.80;;;;;;5011745;28;20514;-77
2021/11/29 06:04:23;;;;;;;11.27;4.40;;;3.00;64.70;;;;;;5007061;28;20767;-75
2021/11/29 06:06:48;;;;;;;9.77;4.38;;;2.90;67.10;;;;;;5008882;28;20455;-75
2021/11/29 06:09:14;;;;;;;6.10;4.20;;;2.80;69.60;;;;;;5011295;28;20897;-74
2021/11/29 06:11:41;;;;;;;5.15;4.00;;;2.70;71.20;;;;;;5013239;28;20381;-76
2021/11/29 06:14:07;;;;;;;9.18;4.20;;;2.70;73.20;;;;;;5012260;28;20932;-75
2021/11/29 06:16:32;;;;;;;5.18;4.10;;;2.80;71.00;;;;;;4996649;28;20446;-76
2021/11/29 06:18:58;;;;;;;5.73;4.13;;;2.70;70.60;;;;;;5010884;28;20412;-80
2021/11/29 06:21:24;;;;;;;5.40;3.70;;;2.70;70.30;;;;;;5018444;28;20393;-78
2021/11/29 06:23:50;;;;;;;7.00;3.87;;;2.70;70.10;;;;;;5016195;28;20405;-77
2021/11/29 06:26:17;;;;;;;10.70;4.50;;;2.80;69.40;;;;;;5019497;28;20397;-80
2021/11/29 06:28:43;;;;;;;6.70;4.60;;;2.70;70.00;;;;;;5022114;28;20412;-80
2021/11/29 06:31:09;;;;;;;42.13;21.35;;;2.70;69.90;;;;;;5020302;28;20495;-79
2021/11/29 06:33:35;;;;;;;62.80;27.65;;;2.70;73.40;;;;;;5018374;28;20451;-81
2021/11/29 06:36:01;;;;;;;6.80;4.60;;;2.90;74.90;;;;;;5018134;28;20392;-78
2021/11/29 06:38:27;;;;;;;5.70;4.18;;;3.00;71.60;;;;;;5017924;28;20412;-79
2021/11/29 06:40:56;;;;;;;5.95;4.10;;;3.00;67.10;;;;;;5011554;28;20751;-76
2021/11/29 06:43:23;;;;;;;8.63;4.28;;;2.90;67.70;;;;;;5015244;28;20417;-77
2021/11/29 06:45:50;;;;;;;6.05;4.15;;;2.90;68.10;;;;;;5021757;28;20407;-77
2021/11/29 06:48:16;;;;;;;7.00;4.03;;;2.80;68.50;;;;;;5021913;28;20475;-75
2021/11/29 06:50:42;;;;;;;5.43;4.30;;;2.90;68.50;;;;;;5021826;28;20408;-78
2021/11/29 06:53:07;;;;;;;13.10;4.57;;;2.90;67.40;;;;;;5019672;28;20699;-75
2021/11/29 06:55:33;;;;;;;5.28;4.35;;;2.90;65.70;;;;;;5016241;28;20420;-77
2021/11/29 06:58:01;;;;;;;5.10;4.40;;;2.90;68.20;;;;;;5017104;28;20408;-77
2021/11/29 07:00:28;;;;;;;5.40;4.70;;;3.00;67.10;;;;;;5019599;28;20415;-78
2021/11/29 07:02:54;;;;;;;6.43;4.30;;;2.90;68.00;;;;;;5018058;28;20457;-79
2021/11/29 07:05:20;;;;;;;7.20;4.75;;;3.00;68.50;;;;;;5017818;28;20415;-76
2021/11/29 07:07:49;;;;;;;5.40;4.07;;;3.00;67.20;;;;;;5016943;28;20392;-76
2021/11/29 07:10:15;;;;;;;7.20;3.63;;;3.00;66.80;;;;;;5020165;28;20404;-77
2021/11/29 07:12:41;;;;;;;5.68;4.00;;;3.00;65.50;;;;;;5017167;28;20404;-77
2021/11/29 07:15:08;;;;;;;6.95;4.00;;;3.00;64.80;;;;;;5018863;28;20403;-77
2021/11/29 07:17:34;;;;;;;8.00;4.18;;;3.00;66.20;;;;;;5021799;28;20385;-76
2021/11/29 07:19:59;;;;;;;8.00;4.30;;;2.90;67.40;;;;;;5023429;28;20412;-77
2021/11/29 07:22:25;;;;;;;8.35;4.88;;;2.90;68.00;;;;;;5023931;28;20453;-77
2021/11/29 07:24:52;;;;;;;4.90;4.40;;;2.90;68.00;;;;;;5021549;28;20381;-76
2021/11/29 07:27:20;;;;;;;6.80;4.45;;;2.80;69.20;;;;;;5025499;28;20400;-76
2021/11/29 07:29:46;;;;;;;5.90;4.70;;;2.90;68.50;;;;;;5023188;28;20401;-77
2021/11/29 07:32:12;;;;;;;5.07;4.47;;;2.90;68.00;;;;;;5020952;28;20411;-77
2021/11/29 07:34:38;;;;;;;6.07;4.80;;;3.00;66.70;;;;;;5010514;28;20460;-78
2021/11/29 07:37:04;;;;;;;5.80;4.22;;;3.00;66.20;;;;;;5002054;28;20467;-77
2021/11/29 07:39:30;;;;;;;4.82;4.32;;;3.10;64.70;;;;;;5020298;28;20412;-76
2021/11/29 07:41:58;;;;;;;8.40;4.40;;;3.00;66.20;;;;;;5033934;28;20407;-78
2021/11/29 07:44:24;;;;;;;6.07;4.40;;;3.00;65.80;;;;;;5023049;28;20404;-77
2021/11/29 07:46:50;;;;;;;7.68;4.70;;;3.00;65.40;;;;;;5020017;28;20397;-77
2021/11/29 07:49:15;;;;;;;6.45;4.32;;;3.00;66.60;;;;;;5018646;28;20762;-78
2021/11/29 07:51:41;;;;;;;5.82;4.40;;;2.90;67.40;;;;;;5011652;23;20442;-76
2021/11/29 07:54:07;;;;;;;5.87;3.90;;;3.00;67.80;;;;;;4996367;28;20907;-76
2021/11/29 07:56:32;;;;;;;5.72;4.38;;;3.00;66.70;;;;;;4995871;28;20379;-76
2021/11/29 07:58:58;;;;;;;5.30;4.68;;;3.10;66.80;;;;;;4994824;28;20406;-77
2021/11/29 08:01:23;;;;;;;6.70;4.63;;;3.00;67.40;;;;;;4994027;28;20922;-76
2021/11/29 08:03:49;;;;;;;6.20;4.03;;;3.00;68.00;;;;;;4994629;28;20901;-76
2021/11/29 08:06:15;;;;;;;8.60;4.07;;;3.10;66.80;;;;;;4995330;28;20990;-77
2021/11/29 08:08:45;;;;;;;8.48;3.70;;;3.10;65.60;;;;;;4995008;28;20394;-76
2021/11/29 08:11:11;;;;;;;10.38;4.10;;;3.10;65.90;;;;;;4995909;28;20473;-76
2021/11/29 08:13:37;;;;;;;6.53;3.83;;;3.00;66.80;;;;;;4986580;28;20466;-76
2021/11/29 08:16:02;;;;;;;5.63;3.70;;;3.00;67.10;;;;;;4987186;28;20906;-77
2021/11/29 08:18:28;;;;;;;4.60;4.00;;;3.00;67.50;;;;;;4995092;28;20406;-76
2021/11/29 08:20:54;;;;;;;7.87;4.00;;;3.00;66.70;;;;;;4994499;28;20402;-75
2021/11/29 08:23:19;;;;;;;4.30;3.90;;;3.10;65.80;;;;;;4993664;28;20928;-76
2021/11/29 08:25:45;;;;;;;4.82;3.35;;;3.30;64.30;;;;;;4994326;28;20884;-77
2021/11/29 08:28:12;;;;;;;5.43;4.07;;;3.40;62.80;;;;;;4995703;28;20402;-77
2021/11/29 08:30:40;;;;;;;5.40;3.50;;;3.50;61.10;;;;;;4993235;28;20643;-76
2021/11/29 08:33:06;;;;;;;5.20;3.75;;;3.50;62.40;;;;;;4994934;28;20405;-77
2021/11/29 08:35:32;;;;;;;5.57;3.50;;;3.50;60.90;;;;;;4986894;28;20395;-76
2021/11/29 08:37:58;;;;;;;5.88;4.00;;;3.60;59.80;;;;;;5001249;28;20410;-76
2021/11/29 08:40:27;;;;;;;4.20;3.47;;;3.70;59.60;;;;;;4993993;28;20453;-75
2021/11/29 08:43:02;;;;;;;8.63;3.60;;;3.80;58.60;;;;;;4988038;28;20386;-77
2021/11/29 08:45:29;;;;;;;7.53;3.65;;;3.80;58.20;;;;;;4994740;28;20418;-76
2021/11/29 08:47:56;;;;;;;6.45;3.72;;;3.80;57.40;;;;;;4994935;28;20403;-78
2021/11/29 08:50:22;;;;;;;5.13;3.88;;;3.90;57.40;;;;;;4985516;28;20410;-76
2021/11/29 08:52:48;;;;;;;5.40;4.10;;;3.90;55.90;;;;;;4980075;28;20406;-76
2021/11/29 08:55:14;;;;;;;6.25;3.60;;;3.80;56.70;;;;;;4986818;28;20879;-76
2021/11/29 08:57:40;;;;;;;7.40;3.87;;;3.90;57.70;;;;;;4991693;28;20438;-75
2021/11/29 09:00:09;;;;;;;5.95;3.97;;;3.80;57.80;;;;;;4992961;28;20419;-76
2021/11/29 09:02:35;;;;;;;4.80;4.22;;;3.70;58.80;;;;;;4992598;28;20976;-77
2021/11/29 09:05:00;;;;;;;6.25;4.45;;;3.80;61.00;;;;;;4993090;28;20426;-76
2021/11/29 09:07:26;;;;;;;10.27;5.18;;;3.80;60.30;;;;;;4992099;28;21205;-76
2021/11/29 09:09:51;;;;;;;9.10;4.23;;;3.80;59.40;;;;;;4981048;28;20406;-76
2021/11/29 09:12:17;;;;;;;4.37;3.97;;;3.90;59.30;;;;;;4984657;28;20434;-77
2021/11/29 09:14:43;;;;;;;7.43;4.37;;;3.90;58.90;;;;;;4980720;28;20844;-76
2021/11/29 09:17:09;;;;;;;10.25;5.05;;;3.90;58.80;;;;;;4986739;28;20406;-76
2021/11/29 09:19:35;;;;;;;7.60;4.60;;;3.90;58.10;;;;;;4982524;28;20415;-77
2021/11/29 09:22:01;;;;;;;6.83;4.60;;;3.90;59.00;;;;;;4983579;28;20398;-76
2021/11/29 09:24:27;;;;;;;10.52;4.78;;;4.00;58.60;;;;;;4994327;28;20441;-76
2021/11/29 09:26:53;;;;;;;7.60;5.10;;;4.00;57.90;;;;;;4995697;28;20460;-77
2021/11/29 09:29:18;;;;;;;6.70;4.97;;;4.10;57.50;;;;;;4994880;28;20484;-75
2021/11/29 09:31:44;;;;;;;8.57;5.15;;;4.10;57.90;;;;;;4989832;28;20515;-76
2021/11/29 09:34:10;;;;;;;7.72;4.85;;;4.10;57.00;;;;;;4989973;28;20409;-74
2021/11/29 09:36:36;;;;;;;11.17;5.20;;;4.10;57.70;;;;;;4995480;28;20393;-76
2021/11/29 09:39:05;;;;;;;7.22;5.07;;;4.10;57.50;;;;;;4993924;28;20513;-75
2021/11/29 09:41:31;;;;;;;11.45;5.72;;;4.10;57.00;;;;;;4996715;28;20425;-75
2021/11/29 09:43:57;;;;;;;8.55;4.82;;;4.10;58.50;;;;;;5006092;28;20395;-74
2021/11/29 09:46:22;;;;;;;11.17;5.60;;;4.10;58.60;;;;;;5013270;28;20428;-75
2021/11/29 09:48:48;;;;;;;8.25;5.32;;;4.00;59.20;;;;;;5015054;28;20490;-74
2021/11/29 09:51:14;;;;;;;9.67;5.20;;;4.00;59.70;;;;;;5015963;28;20434;-74
2021/11/29 09:53:40;;;;;;;10.30;5.90;;;3.90;61.00;;;;;;5015795;28;20391;-74
2021/11/29 09:56:07;;;;;;;14.80;6.53;;;3.90;62.50;;;;;;5016550;28;20413;-73
2021/11/29 09:58:33;;;;;;;11.65;6.07;;;3.80;64.50;;;;;;5005689;28;20402;-75
2021/11/29 10:01:01;;;;;;;13.03;6.03;;;3.90;64.40;;;;;;4996210;28;20418;-75
2021/11/29 10:03:27;;;;;;;13.15;6.07;;;3.90;65.30;;;;;;4994337;28;20426;-74
2021/11/29 10:05:54;;;;;;;11.30;6.43;;;3.90;64.40;;;;;;4994530;28;20961;-76
2021/11/29 10:08:38;;;;;;;13.05;6.85;;;4.00;63.50;;;;;;4996341;28;20481;-77
2021/11/29 10:11:11;;;;;;;9.50;6.30;;;4.00;65.50;;;;;;4993145;28;20421;-77
2021/11/29 10:13:51;;;;;;;10.68;6.60;;;4.10;66.30;;;;;;4989328;28;20427;-76
2021/11/29 10:16:38;;;;;;;11.75;7.10;;;4.10;64.90;;;;;;4999687;28;20456;-77
2021/11/29 10:19:31;;;;;;;9.45;6.13;;;4.40;62.60;;;;;;4987508;28;20410;-77
2021/11/29 10:22:15;;;;;;;10.68;6.50;;;4.40;61.30;;;;;;4996696;28;20409;-76
2021/11/29 10:24:41;;;;;;;12.68;6.00;;;4.10;63.70;;;;;;4978923;28;20475;-75
2021/11/29 10:27:07;;;;;;;11.68;6.45;;;4.00;66.80;;;;;;4990993;28;20391;-77
2021/11/29 10:29:33;;;;;;;13.90;5.43;;;3.80;70.50;;;;;;4998858;28;20421;-77
2021/11/29 10:31:59;;;;;;;18.27;6.40;;;3.80;73.20;;;;;;4996825;28;20442;-77
2021/11/29 10:34:30;;;;;;;15.23;6.45;;;3.80;74.20;;;;;;4994076;28;20412;-76
2021/11/29 10:37:14;;;;;;;26.27;8.60;;;3.80;73.90;;;;;;4985524;28;20429;-77
2021/11/29 10:39:42;;;;;;;16.67;9.10;;;4.00;77.20;;;;;;4993144;28;20457;-77
2021/11/29 10:42:12;;;;;;;19.10;9.05;;;4.10;74.40;;;;;;4997325;28;20895;-76
2021/11/29 10:44:43;;;;;;;14.75;8.10;;;4.30;73.50;;;;;;5002030;28;20398;-75
2021/11/29 10:47:12;;;;;;;10.77;7.07;;;4.50;69.30;;;;;;5003705;28;20466;-74
2021/11/29 10:49:40;;;;;;;16.92;8.40;;;4.60;66.40;;;;;;5000758;28;20410;-76
2021/11/29 10:52:07;;;;;;;16.95;8.15;;;4.70;67.70;;;;;;5000930;28;20493;-76
2021/11/29 10:54:35;;;;;;;16.17;7.55;;;4.80;69.00;;;;;;5006424;28;20407;-74
2021/11/29 10:57:02;;;;;;;15.27;7.45;;;5.10;65.40;;;;;;5003966;28;20407;-76
2021/11/29 10:59:31;;;;;;;11.75;6.50;;;5.20;66.50;;;;;;5005605;28;20406;-75
2021/11/29 11:01:59;;;;;;;13.63;6.30;;;5.40;64.40;;;;;;5000698;28;20414;-76
2021/11/29 11:04:30;;;;;;;12.90;6.50;;;5.40;58.00;;;;;;5001261;28;20398;-76
2021/11/29 11:07:00;;;;;;;20.70;7.00;;;5.30;60.20;;;;;;4995736;28;20436;-77
2021/11/29 11:09:35;;;;;;;14.45;6.95;;;5.40;62.00;;;;;;4995748;28;20779;-79
2021/11/29 11:12:08;;;;;;;19.40;7.32;;;5.30;61.40;;;;;;4993182;28;20398;-78
2021/11/29 11:14:39;;;;;;;9.85;3.55;;;5.40;63.60;;;;;;4989656;28;20467;-79
2021/11/29 11:17:10;;;;;;;9.98;5.18;;;5.10;60.30;;;;;;4991166;28;20411;-74
2021/11/29 11:19:46;;;;;;;13.85;6.20;;;5.10;64.30;;;;;;4993012;28;20437;-76
2021/11/29 11:22:15;;;;;;;12.95;5.82;;;5.10;64.60;;;;;;4996548;28;20398;-75
2021/11/29 11:24:43;;;;;;;5.50;3.80;;;5.30;63.60;;;;;;4993347;28;20398;-74
2021/11/29 11:27:10;;;;;;;11.88;4.13;;;5.30;60.10;;;;;;4984959;28;20462;-75
2021/11/29 11:29:37;;;;;;;10.50;4.60;;;5.20;62.30;;;;;;4982919;28;20522;-74
2021/11/29 11:32:12;;;;;;;7.95;3.90;;;5.20;62.60;;;;;;4994740;28;20393;-75
2021/11/29 11:34:42;;;;;;;12.45;5.22;;;5.30;61.10;;;;;;4976394;28;20396;-75
2021/11/29 11:37:09;;;;;;;13.32;6.00;;;5.30;63.20;;;;;;4990891;28;20406;-75
2021/11/29 11:39:35;;;;;;;6.38;3.80;;;5.50;64.10;;;;;;4983285;28;20526;-74
2021/11/29 11:42:01;;;;;;;8.07;4.80;;;5.40;60.20;;;;;;4979842;28;20558;-74
2021/11/29 11:44:27;;;;;;;6.85;3.90;;;5.50;61.30;;;;;;4992211;28;20383;-74
2021/11/29 11:46:55;;;;;;;8.50;4.20;;;5.50;59.50;;;;;;4991397;28;20395;-74
2021/11/29 11:49:21;;;;;;;16.42;4.32;;;5.50;60.10;;;;;;4983440;28;20403;-73
2021/11/29 11:51:47;;;;;;;5.35;3.47;;;5.60;60.90;;;;;;4990754;28;20420;-72
2021/11/29 11:54:14;;;;;;;6.77;3.40;;;5.50;60.00;;;;;;4997884;28;20477;-72
2021/11/29 11:56:40;;;;;;;9.30;4.07;;;5.30;60.90;;;;;;4994226;28;20513;-72
2021/11/29 11:59:14;;;;;;;4.30;3.00;;;5.30;62.20;;;;;;4993007;28;20446;-72
2021/11/29 12:01:45;;;;;;;3.13;2.67;;;5.30;57.50;;;;;;4978756;28;20396;-72
2021/11/29 12:04:13;;;;;;;4.45;2.83;;;5.20;59.80;;;;;;4980845;28;20432;-73
2021/11/29 12:06:42;;;;;;;4.70;3.10;;;5.20;56.70;;;;;;4982800;28;20442;-73
2021/11/29 12:09:09;;;;;;;7.95;3.63;;;5.20;58.50;;;;;;4976275;28;20405;-74
2021/11/29 12:11:42;;;;;;;4.53;3.42;;;5.30;58.20;;;;;;4978227;28;20403;-76
2021/11/29 12:14:26;;;;;;;4.65;3.00;;;5.40;58.10;;;;;;4977981;28;20392;-76
2021/11/29 12:17:16;;;;;;;5.35;2.70;;;5.20;57.50;;;;;;4979065;28;20392;-75
2021/11/29 12:19:43;;;;;;;5.60;3.40;;;5.10;57.70;;;;;;4991353;28;20418;-74
2021/11/29 12:22:20;;;;;;;3.72;2.40;;;5.20;59.40;;;;;;4995955;28;20430;-73
2021/11/29 12:24:55;;;;;;;4.38;2.80;;;5.10;58.20;;;;;;4975040;28;20810;-76
2021/11/29 12:27:20;;;;;;;5.32;3.35;;;5.10;58.90;;;;;;4977577;28;20885;-76
2021/11/29 12:29:52;;;;;;;8.70;3.70;;;5.20;60.10;;;;;;4994067;28;20406;-76
2021/11/29 12:32:24;;;;;;;5.60;4.03;;;5.20;59.90;;;;;;4997253;28;20479;-76
2021/11/29 12:35:00;;;;;;;3.70;3.08;;;5.30;60.40;;;;;;4992213;28;20409;-76
2021/11/29 12:37:41;;;;;;;3.42;2.60;;;5.40;59.20;;;;;;4994460;28;20755;-76
2021/11/29 12:40:10;;;;;;;4.10;2.80;;;5.40;58.40;;;;;;4993565;28;20410;-76
2021/11/29 12:42:35;;;;;;;7.68;4.25;;;5.40;58.80;;;;;;4988482;28;20907;-76
2021/11/29 12:45:10;;;;;;;4.22;3.05;;;5.50;60.20;;;;;;4978534;28;20463;-76
2021/11/29 12:47:51;;;;;;;8.50;3.17;;;5.50;56.50;;;;;;4982335;28;20393;-76
2021/11/29 12:50:47;;;;;;;5.85;2.97;;;5.40;56.20;;;;;;4992909;28;20406;-76